createdAt,value
2022-08-28T00:00:04.733Z,1014.60
2022-08-28T00:01:04.739Z,1014.53
2022-08-28T00:02:04.789Z,1014.54
2022-08-28T00:03:05.679Z,1014.54
2022-08-28T00:04:04.694Z,1014.50
2022-08-28T00:05:04.724Z,1014.60
2022-08-28T00:06:04.649Z,1014.58
2022-08-28T00:07:04.638Z,1014.61
2022-08-28T00:08:04.786Z,1014.65
2022-08-28T00:09:04.618Z,1014.62
2022-08-28T00:10:04.982Z,1014.63
2022-08-28T00:11:04.596Z,1014.64
2022-08-28T00:12:04.740Z,1014.63
2022-08-28T00:13:04.638Z,1014.60
2022-08-28T00:14:04.850Z,1014.62
2022-08-28T00:15:04.621Z,1014.65
2022-08-28T00:16:04.595Z,1014.63
2022-08-28T00:17:04.619Z,1014.59
2022-08-28T00:18:04.692Z,1014.61
2022-08-28T00:19:04.584Z,1014.64
2022-08-28T00:20:04.476Z,1014.57
2022-08-28T00:21:04.483Z,1014.65
2022-08-28T00:22:04.488Z,1014.65
2022-08-28T00:23:04.449Z,1014.63
2022-08-28T00:24:04.433Z,1014.65
2022-08-28T00:25:04.460Z,1014.69
2022-08-28T00:26:04.447Z,1014.69
2022-08-28T00:27:04.378Z,1014.68
2022-08-28T00:28:08.480Z,1014.66
2022-08-28T00:29:04.426Z,1014.67
2022-08-28T00:30:04.320Z,1014.67
2022-08-28T00:31:04.381Z,1014.71
2022-08-28T00:32:04.358Z,1014.66
2022-08-28T00:33:04.320Z,1014.59
2022-08-28T00:34:04.267Z,1014.65
2022-08-28T00:35:04.305Z,1014.65
2022-08-28T00:36:04.300Z,1014.64
2022-08-28T00:37:04.267Z,1014.64
2022-08-28T00:38:04.307Z,1014.66
2022-08-28T00:39:04.250Z,1014.63
2022-08-28T00:40:04.251Z,1014.69
2022-08-28T00:41:05.030Z,1014.65
2022-08-28T00:42:04.179Z,1014.66
2022-08-28T00:43:04.214Z,1014.59
2022-08-28T00:44:04.133Z,1014.61
2022-08-28T00:45:04.139Z,1014.61
2022-08-28T00:46:04.200Z,1014.54
2022-08-28T00:47:04.104Z,1014.61
2022-08-28T00:48:04.090Z,1014.52
2022-08-28T00:49:04.141Z,1014.53
2022-08-28T00:50:04.057Z,1014.51
2022-08-28T00:51:04.087Z,1014.55
2022-08-28T00:52:04.047Z,1014.57
2022-08-28T00:53:04.041Z,1014.59
2022-08-28T00:54:07.546Z,1014.56
2022-08-28T00:55:03.996Z,1014.59
2022-08-28T00:56:04.133Z,1014.66
2022-08-28T00:57:03.979Z,1014.62
2022-08-28T00:58:03.963Z,1014.69
2022-08-28T00:59:03.971Z,1014.62
2022-08-28T01:00:03.962Z,1014.64
2022-08-28T01:01:03.920Z,1014.66
2022-08-28T01:02:03.962Z,1014.56
2022-08-28T01:03:03.979Z,1014.58
2022-08-28T01:04:03.879Z,1014.54
2022-08-28T01:05:03.856Z,1014.56
2022-08-28T01:06:03.862Z,1014.56
2022-08-28T01:07:03.894Z,1014.60
2022-08-28T01:08:03.828Z,1014.57
2022-08-28T01:09:03.876Z,1014.62
2022-08-28T01:10:03.793Z,1014.57
2022-08-28T01:11:03.830Z,1014.62
2022-08-28T01:12:03.771Z,1014.62
2022-08-28T01:13:03.778Z,1014.65
2022-08-28T01:14:03.772Z,1014.63
2022-08-28T01:15:03.750Z,1014.69
2022-08-28T01:16:03.818Z,1014.62
2022-08-28T01:17:03.905Z,1014.61
2022-08-28T01:18:08.052Z,1014.60
2022-08-28T01:19:03.717Z,1014.63
2022-08-28T01:20:03.669Z,1014.69
2022-08-28T01:21:03.653Z,1014.60
2022-08-28T01:22:03.660Z,1014.71
2022-08-28T01:23:03.630Z,1014.67
2022-08-28T01:24:03.673Z,1014.66
2022-08-28T01:25:03.625Z,1014.74
2022-08-28T01:26:03.588Z,1014.68
2022-08-28T01:27:05.093Z,1014.72
2022-08-28T01:28:03.562Z,1014.63
2022-08-28T01:29:03.613Z,1014.76
2022-08-28T01:30:03.556Z,1014.72
2022-08-28T01:31:03.572Z,1014.71
2022-08-28T01:32:03.522Z,1014.75
2022-08-28T01:33:03.526Z,1014.77
2022-08-28T01:34:03.499Z,1014.83
2022-08-28T01:35:03.476Z,1014.79
2022-08-28T01:36:03.503Z,1014.82
2022-08-28T01:37:03.690Z,1014.80
2022-08-28T01:38:03.493Z,1014.80
2022-08-28T01:39:03.437Z,1014.78
2022-08-28T01:40:03.459Z,1014.77
2022-08-28T01:41:03.401Z,1014.78
2022-08-28T01:42:03.393Z,1014.77
2022-08-28T01:43:03.433Z,1014.76
2022-08-28T01:44:03.394Z,1014.81
2022-08-28T01:45:03.374Z,1014.80
2022-08-28T01:46:03.361Z,1014.82
2022-08-28T01:47:03.334Z,1014.79
2022-08-28T01:48:03.299Z,1014.85
2022-08-28T01:49:03.308Z,1014.85
2022-08-28T01:50:03.282Z,1014.81
2022-08-28T01:51:03.277Z,1014.88
2022-08-28T01:52:03.400Z,1014.83
2022-08-28T01:53:03.228Z,1014.85
2022-08-28T01:54:03.223Z,1014.77
2022-08-28T01:55:05.095Z,1014.89
2022-08-28T01:56:04.592Z,1014.82
2022-08-28T01:57:03.167Z,1014.81
2022-08-28T01:58:03.162Z,1014.81
2022-08-28T01:59:03.153Z,1014.83
2022-08-28T02:00:03.147Z,1014.87
2022-08-28T02:01:03.383Z,1014.85
2022-08-28T02:02:03.187Z,1014.89
2022-08-28T02:03:03.092Z,1014.90
2022-08-28T02:04:03.183Z,1014.88
2022-08-28T02:05:03.065Z,1014.86
2022-08-28T02:06:03.058Z,1014.88
2022-08-28T02:07:03.051Z,1014.93
2022-08-28T02:08:03.101Z,1014.94
2022-08-28T02:09:03.025Z,1014.93
2022-08-28T02:10:03.009Z,1014.95
2022-08-28T02:11:03.231Z,1014.95
2022-08-28T02:12:02.996Z,1014.89
2022-08-28T02:13:02.988Z,1014.89
2022-08-28T02:14:03.000Z,1014.92
2022-08-28T02:15:02.944Z,1014.94
2022-08-28T02:16:03.025Z,1014.96
2022-08-28T02:17:02.919Z,1014.92
2022-08-28T02:18:02.890Z,1014.96
2022-08-28T02:19:02.963Z,1014.93
2022-08-28T02:20:02.873Z,1014.99
2022-08-28T02:21:02.871Z,1014.93
2022-08-28T02:22:02.856Z,1014.99
2022-08-28T02:23:02.815Z,1014.92
2022-08-28T02:24:02.874Z,1014.92
2022-08-28T02:25:02.805Z,1014.93
2022-08-28T02:26:02.785Z,1014.95
2022-08-28T02:27:02.789Z,1014.90
2022-08-28T02:28:02.762Z,1014.93
2022-08-28T02:29:02.812Z,1014.96
2022-08-28T02:30:02.738Z,1014.97
2022-08-28T02:31:02.872Z,1014.94
2022-08-28T02:32:02.710Z,1014.93
2022-08-28T02:33:02.686Z,1014.99
2022-08-28T02:34:02.691Z,1014.92
2022-08-28T02:35:02.827Z,1014.91
2022-08-28T02:36:06.597Z,1014.94
2022-08-28T02:37:02.671Z,1014.92
2022-08-28T02:38:02.624Z,1014.93
2022-08-28T02:39:02.908Z,1014.86
2022-08-28T02:40:02.733Z,1014.87
2022-08-28T02:41:04.253Z,1014.79
2022-08-28T02:42:02.616Z,1014.74
2022-08-28T02:43:02.617Z,1014.77
2022-08-28T02:44:02.591Z,1014.79
2022-08-28T02:45:02.581Z,1014.79
2022-08-28T02:46:02.756Z,1014.79
2022-08-28T02:47:02.503Z,1014.81
2022-08-28T02:48:02.500Z,1014.73
2022-08-28T02:49:02.481Z,1014.79
2022-08-28T02:50:02.508Z,1014.84
2022-08-28T02:51:02.455Z,1014.81
2022-08-28T02:52:02.452Z,1014.85
2022-08-28T02:53:02.421Z,1014.81
2022-08-28T02:54:02.429Z,1014.82
2022-08-28T02:55:02.406Z,1014.80
2022-08-28T02:56:02.422Z,1014.82
2022-08-28T02:57:02.408Z,1014.83
2022-08-28T02:58:02.352Z,1014.83
2022-08-28T02:59:02.355Z,1014.86
2022-08-28T03:00:02.359Z,1014.82
2022-08-28T03:01:02.536Z,1014.83
2022-08-28T03:02:02.385Z,1014.90
2022-08-28T03:03:02.377Z,1014.87
2022-08-28T03:04:02.358Z,1014.83
2022-08-28T03:05:02.304Z,1014.84
2022-08-28T03:06:02.241Z,1014.91
2022-08-28T03:07:02.265Z,1014.86
2022-08-28T03:08:02.246Z,1014.91
2022-08-28T03:09:02.222Z,1014.89
2022-08-28T03:10:02.242Z,1014.86
2022-08-28T03:11:02.186Z,1014.82
2022-08-28T03:12:02.171Z,1014.79
2022-08-28T03:13:02.214Z,1014.85
2022-08-28T03:14:02.140Z,1014.87
2022-08-28T03:15:02.147Z,1014.84
2022-08-28T03:16:02.138Z,1014.86
2022-08-28T03:17:02.179Z,1014.83
2022-08-28T03:18:02.115Z,1014.83
2022-08-28T03:19:03.185Z,1014.79
2022-08-28T03:20:02.081Z,1014.83
2022-08-28T03:21:02.047Z,1014.89
2022-08-28T03:22:02.055Z,1014.88
2022-08-28T03:23:02.041Z,1014.89
2022-08-28T03:24:02.017Z,1014.88
2022-08-28T03:25:02.006Z,1014.90
2022-08-28T03:26:02.727Z,1014.86
2022-08-28T03:27:01.993Z,1014.91
2022-08-28T03:28:01.956Z,1014.89
2022-08-28T03:29:01.950Z,1014.82
2022-08-28T03:30:02.106Z,1014.85
2022-08-28T03:31:01.983Z,1014.87
2022-08-28T03:32:01.959Z,1014.90
2022-08-28T03:33:01.894Z,1014.91
2022-08-28T03:34:01.877Z,1014.88
2022-08-28T03:35:01.883Z,1014.90
2022-08-28T03:36:02.470Z,1014.86
2022-08-28T03:37:01.834Z,1014.90
2022-08-28T03:38:01.834Z,1014.88
2022-08-28T03:39:01.814Z,1014.86
2022-08-28T03:40:01.867Z,1014.82
2022-08-28T03:41:01.801Z,1014.86
2022-08-28T03:42:01.815Z,1014.85
2022-08-28T03:43:01.763Z,1014.87
2022-08-28T03:44:01.813Z,1014.87
2022-08-28T03:45:01.783Z,1014.87
2022-08-28T03:46:01.738Z,1014.83
2022-08-28T03:47:01.711Z,1014.83
2022-08-28T03:48:01.705Z,1014.87
2022-08-28T03:49:01.676Z,1014.90
2022-08-28T03:50:01.736Z,1014.83
2022-08-28T03:51:01.665Z,1014.85
2022-08-28T03:52:01.707Z,1014.78
2022-08-28T03:53:01.647Z,1014.84
2022-08-28T03:54:01.671Z,1014.89
2022-08-28T03:55:01.638Z,1014.84
2022-08-28T03:56:01.735Z,1014.87
2022-08-28T03:57:01.617Z,1014.86
2022-08-28T03:58:01.571Z,1014.86
2022-08-28T03:59:01.589Z,1014.85
2022-08-28T04:00:01.814Z,1014.85
2022-08-28T04:01:01.581Z,1014.84
2022-08-28T04:02:01.519Z,1014.89
2022-08-28T04:03:01.589Z,1014.89
2022-08-28T04:04:01.487Z,1014.88
2022-08-28T04:05:01.483Z,1014.88
2022-08-28T04:06:01.474Z,1014.91
2022-08-28T04:07:01.449Z,1014.80
2022-08-28T04:08:01.422Z,1014.80
2022-08-28T04:09:01.438Z,1014.85
2022-08-28T04:10:01.482Z,1014.82
2022-08-28T04:11:01.455Z,1014.75
2022-08-28T04:12:01.377Z,1014.80
2022-08-28T04:13:01.417Z,1014.84
2022-08-28T04:14:01.355Z,1014.81
2022-08-28T04:15:01.376Z,1014.82
2022-08-28T04:16:01.339Z,1014.83
2022-08-28T04:17:01.703Z,1014.83
2022-08-28T04:18:01.295Z,1014.86
2022-08-28T04:19:01.320Z,1014.83
2022-08-28T04:20:01.300Z,1014.87
2022-08-28T04:21:01.315Z,1014.82
2022-08-28T04:22:01.245Z,1014.86
2022-08-28T04:23:01.235Z,1014.80
2022-08-28T04:24:01.229Z,1014.81
2022-08-28T04:25:01.234Z,1014.85
2022-08-28T04:26:01.255Z,1014.85
2022-08-28T04:27:01.190Z,1014.88
2022-08-28T04:28:01.174Z,1014.90
2022-08-28T04:29:01.153Z,1014.86
2022-08-28T04:30:01.154Z,1014.94
2022-08-28T04:31:01.144Z,1014.87
2022-08-28T04:32:01.195Z,1014.85
2022-08-28T04:33:01.126Z,1014.89
2022-08-28T04:34:01.098Z,1014.87
2022-08-28T04:35:01.102Z,1014.85
2022-08-28T04:36:01.066Z,1014.89
2022-08-28T04:37:01.069Z,1014.92
2022-08-28T04:38:03.341Z,1014.87
2022-08-28T04:39:01.123Z,1014.89
2022-08-28T04:40:01.069Z,1014.92
2022-08-28T04:41:01.035Z,1014.85
2022-08-28T04:42:00.987Z,1014.85
2022-08-28T04:43:01.024Z,1014.82
2022-08-28T04:44:00.976Z,1014.89
2022-08-28T04:45:00.949Z,1014.96
2022-08-28T04:46:00.981Z,1014.90
2022-08-28T04:47:00.909Z,1014.90
2022-08-28T04:48:03.334Z,1014.85
2022-08-28T04:49:00.916Z,1014.91
2022-08-28T04:50:00.885Z,1014.92
2022-08-28T04:51:01.003Z,1014.94
2022-08-28T04:52:00.928Z,1014.89
2022-08-28T04:53:00.845Z,1014.93
2022-08-28T04:54:00.814Z,1014.95
2022-08-28T04:55:00.876Z,1014.93
2022-08-28T04:56:00.837Z,1014.98
2022-08-28T04:57:00.839Z,1014.94
2022-08-28T04:58:00.913Z,1014.99
2022-08-28T04:59:00.793Z,1014.98
2022-08-28T05:00:00.801Z,1015.06
2022-08-28T05:01:00.806Z,1014.98
2022-08-28T05:02:00.837Z,1015.01
2022-08-28T05:03:00.705Z,1015.07
2022-08-28T05:04:00.693Z,1015.09
2022-08-28T05:05:00.808Z,1015.08
2022-08-28T05:06:00.687Z,1015.08
2022-08-28T05:07:00.660Z,1015.09
2022-08-28T05:08:00.722Z,1015.08
2022-08-28T05:09:00.675Z,1015.09
2022-08-28T05:10:00.699Z,1015.15
2022-08-28T05:11:00.664Z,1015.08
2022-08-28T05:12:00.627Z,1015.09
2022-08-28T05:13:00.630Z,1015.07
2022-08-28T05:14:00.693Z,1015.08
2022-08-28T05:15:00.575Z,1015.19
2022-08-28T05:16:00.791Z,1015.14
2022-08-28T05:17:00.562Z,1015.13
2022-08-28T05:18:00.598Z,1015.13
2022-08-28T05:19:00.594Z,1015.18
2022-08-28T05:20:00.474Z,1015.19
2022-08-28T05:21:00.523Z,1015.20
2022-08-28T05:22:00.585Z,1015.12
2022-08-28T05:23:00.500Z,1015.18
2022-08-28T05:24:00.422Z,1015.24
2022-08-28T05:25:00.458Z,1015.17
2022-08-28T05:26:00.427Z,1015.25
2022-08-28T05:27:00.472Z,1015.19
2022-08-28T05:28:00.411Z,1015.21
2022-08-28T05:29:00.371Z,1015.26
2022-08-28T05:30:02.092Z,1015.20
2022-08-28T05:31:00.388Z,1015.22
2022-08-28T05:32:00.419Z,1015.27
2022-08-28T05:33:00.348Z,1015.27
2022-08-28T05:34:00.297Z,1015.28
2022-08-28T05:35:00.326Z,1015.22
2022-08-28T05:36:00.290Z,1015.28
2022-08-28T05:37:00.267Z,1015.29
2022-08-28T05:38:00.257Z,1015.27
2022-08-28T05:39:00.275Z,1015.31
2022-08-28T05:40:00.624Z,1015.26
2022-08-28T05:41:00.208Z,1015.22
2022-08-28T05:42:00.187Z,1015.25
2022-08-28T05:43:00.187Z,1015.23
2022-08-28T05:44:00.166Z,1015.19
2022-08-28T05:45:00.235Z,1015.17
2022-08-28T05:46:00.277Z,1015.28
2022-08-28T05:47:00.117Z,1015.30
2022-08-28T05:48:00.105Z,1015.19
2022-08-28T05:49:00.103Z,1015.21
2022-08-28T05:50:00.079Z,1015.26
2022-08-28T05:51:00.816Z,1015.29
2022-08-28T05:52:00.107Z,1015.23
2022-08-28T05:53:00.061Z,1015.23
2022-08-28T05:54:00.071Z,1015.21
2022-08-28T05:55:00.033Z,1015.27
2022-08-28T05:56:00.015Z,1015.27
2022-08-28T05:56:59.978Z,1015.22
2022-08-28T05:58:00.086Z,1015.24
2022-08-28T05:59:00.006Z,1015.21
2022-08-28T05:59:59.942Z,1015.25
2022-08-28T06:00:59.978Z,1015.29
2022-08-28T06:02:04.152Z,1015.25
2022-08-28T06:03:00.087Z,1015.23
2022-08-28T06:03:59.969Z,1015.23
2022-08-28T06:04:59.922Z,1015.26
2022-08-28T06:05:59.931Z,1015.28
2022-08-28T06:06:59.861Z,1015.23
2022-08-28T06:07:59.883Z,1015.28
2022-08-28T06:08:59.849Z,1015.28
2022-08-28T06:09:59.873Z,1015.25
2022-08-28T06:10:59.860Z,1015.27
2022-08-28T06:11:59.792Z,1015.35
2022-08-28T06:12:59.849Z,1015.34
2022-08-28T06:13:59.801Z,1015.31
2022-08-28T06:14:59.785Z,1015.30
2022-08-28T06:15:59.766Z,1015.28
2022-08-28T06:16:59.726Z,1015.30
2022-08-28T06:17:59.738Z,1015.29
2022-08-28T06:19:00.178Z,1015.34
2022-08-28T06:19:59.674Z,1015.33
2022-08-28T06:20:59.729Z,1015.27
2022-08-28T06:21:59.689Z,1015.27
2022-08-28T06:22:59.641Z,1015.23
2022-08-28T06:23:59.660Z,1015.35
2022-08-28T06:24:59.665Z,1015.31
2022-08-28T06:26:00.055Z,1015.34
2022-08-28T06:26:59.615Z,1015.29
2022-08-28T06:27:59.578Z,1015.27
2022-08-28T06:28:59.647Z,1015.33
2022-08-28T06:29:59.542Z,1015.36
2022-08-28T06:31:22.998Z,1015.27
2022-08-28T06:32:00.608Z,1015.29
2022-08-28T06:32:59.519Z,1015.30
2022-08-28T06:33:59.507Z,1015.26
2022-08-28T06:34:59.483Z,1015.34
2022-08-28T06:35:59.486Z,1015.34
2022-08-28T06:36:59.465Z,1015.20
2022-08-28T06:37:59.448Z,1015.24
2022-08-28T06:38:59.431Z,1015.23
2022-08-28T06:39:59.617Z,1015.26
2022-08-28T06:40:59.437Z,1015.30
2022-08-28T06:41:59.717Z,1015.27
2022-08-28T06:42:59.393Z,1015.35
2022-08-28T06:43:59.369Z,1015.32
2022-08-28T06:44:59.371Z,1015.39
2022-08-28T06:45:59.413Z,1015.41
2022-08-28T06:46:59.382Z,1015.39
2022-08-28T06:47:59.299Z,1015.36
2022-08-28T06:48:59.303Z,1015.42
2022-08-28T06:49:59.296Z,1015.43
2022-08-28T06:50:59.284Z,1015.39
2022-08-28T06:51:59.394Z,1015.45
2022-08-28T06:52:59.260Z,1015.45
2022-08-28T06:53:59.351Z,1015.49
2022-08-28T06:54:59.261Z,1015.47
2022-08-28T06:55:59.202Z,1015.37
2022-08-28T06:56:59.252Z,1015.44
2022-08-28T06:57:59.214Z,1015.55
2022-08-28T06:58:59.186Z,1015.56
2022-08-28T06:59:59.213Z,1015.52
2022-08-28T07:01:02.847Z,1015.47
2022-08-28T07:01:59.279Z,1015.54
2022-08-28T07:02:59.137Z,1015.55
2022-08-28T07:03:59.121Z,1015.49
2022-08-28T07:04:59.091Z,1015.47
2022-08-28T07:05:59.218Z,1015.55
2022-08-28T07:06:59.080Z,1015.54
2022-08-28T07:07:59.045Z,1015.53
2022-08-28T07:08:59.161Z,1015.51
2022-08-28T07:09:59.164Z,1015.52
2022-08-28T07:10:59.030Z,1015.50
2022-08-28T07:11:59.006Z,1015.50
2022-08-28T07:12:58.973Z,1015.44
2022-08-28T07:13:58.958Z,1015.49
2022-08-28T07:14:58.967Z,1015.51
2022-08-28T07:15:59.503Z,1015.48
2022-08-28T07:16:58.980Z,1015.52
2022-08-28T07:17:58.900Z,1015.50
2022-08-28T07:18:58.908Z,1015.49
2022-08-28T07:19:58.884Z,1015.53
2022-08-28T07:21:02.804Z,1015.51
2022-08-28T07:21:58.857Z,1015.52
2022-08-28T07:22:59.755Z,1015.51
2022-08-28T07:23:58.882Z,1015.46
2022-08-28T07:24:58.863Z,1015.51
2022-08-28T07:25:58.883Z,1015.48
2022-08-28T07:26:58.815Z,1015.50
2022-08-28T07:27:58.780Z,1015.46
2022-08-28T07:29:10.450Z,1015.49
2022-08-28T07:29:59.755Z,1015.50
2022-08-28T07:30:58.875Z,1015.50
2022-08-28T07:31:58.953Z,1015.55
2022-08-28T07:32:58.759Z,1015.53
2022-08-28T07:33:58.752Z,1015.51
2022-08-28T07:34:58.731Z,1015.54
2022-08-28T07:35:58.727Z,1015.56
2022-08-28T07:36:58.686Z,1015.53
2022-08-28T07:37:58.679Z,1015.57
2022-08-28T07:38:58.655Z,1015.56
2022-08-28T07:39:58.668Z,1015.55
2022-08-28T07:40:58.615Z,1015.60
2022-08-28T07:41:58.680Z,1015.53
2022-08-28T07:42:58.596Z,1015.62
2022-08-28T07:43:58.560Z,1015.65
2022-08-28T07:44:58.555Z,1015.62
2022-08-28T07:45:58.568Z,1015.67
2022-08-28T07:46:58.574Z,1015.69
2022-08-28T07:47:58.512Z,1015.69
2022-08-28T07:48:58.509Z,1015.71
2022-08-28T07:49:58.484Z,1015.67
2022-08-28T07:50:58.486Z,1015.62
2022-08-28T07:51:58.496Z,1015.70
2022-08-28T07:52:58.483Z,1015.62
2022-08-28T07:53:58.530Z,1015.68
2022-08-28T07:54:58.445Z,1015.71
2022-08-28T07:55:58.418Z,1015.72
2022-08-28T07:56:58.405Z,1015.77
2022-08-28T07:57:58.376Z,1015.80
2022-08-28T07:58:58.372Z,1015.81
2022-08-28T07:59:58.349Z,1015.83
2022-08-28T08:00:58.344Z,1015.79
2022-08-28T08:01:58.395Z,1015.76
2022-08-28T08:02:58.339Z,1015.73
2022-08-28T08:04:01.861Z,1015.79
2022-08-28T08:04:58.289Z,1015.73
2022-08-28T08:05:58.278Z,1015.77
2022-08-28T08:06:58.622Z,1015.71
2022-08-28T08:07:58.287Z,1015.73
2022-08-28T08:08:58.266Z,1015.70
2022-08-28T08:09:58.215Z,1015.78
2022-08-28T08:10:58.214Z,1015.75
2022-08-28T08:11:58.384Z,1015.81
2022-08-28T08:12:58.213Z,1015.72
2022-08-28T08:13:58.196Z,1015.72
2022-08-28T08:14:58.175Z,1015.77
2022-08-28T08:15:58.183Z,1015.81
2022-08-28T08:16:58.132Z,1015.84
2022-08-28T08:17:58.389Z,1015.81
2022-08-28T08:18:58.125Z,1015.85
2022-08-28T08:19:58.110Z,1015.78
2022-08-28T08:20:58.129Z,1015.78
2022-08-28T08:21:58.078Z,1015.82
2022-08-28T08:22:58.049Z,1015.83
2022-08-28T08:23:58.065Z,1015.84
2022-08-28T08:24:58.066Z,1015.79
2022-08-28T08:25:58.131Z,1015.76
2022-08-28T08:26:59.434Z,1015.79
2022-08-28T08:27:58.354Z,1015.74
2022-08-28T08:28:57.972Z,1015.73
2022-08-28T08:29:57.947Z,1015.73
2022-08-28T08:30:58.003Z,1015.81
2022-08-28T08:31:58.002Z,1015.87
2022-08-28T08:32:57.933Z,1015.81
2022-08-28T08:33:58.195Z,1015.84
2022-08-28T08:34:57.909Z,1015.86
2022-08-28T08:35:57.915Z,1015.78
2022-08-28T08:36:57.882Z,1015.82
2022-08-28T08:38:02.698Z,1015.79
2022-08-28T08:38:59.277Z,1015.83
2022-08-28T08:39:57.886Z,1015.78
2022-08-28T08:40:57.855Z,1015.77
2022-08-28T08:41:57.811Z,1015.75
2022-08-28T08:42:57.854Z,1015.72
2022-08-28T08:43:57.771Z,1015.82
2022-08-28T08:44:57.807Z,1015.74
2022-08-28T08:45:57.772Z,1015.74
2022-08-28T08:46:57.888Z,1015.74
2022-08-28T08:47:57.731Z,1015.75
2022-08-28T08:48:57.758Z,1015.77
2022-08-28T08:49:57.758Z,1015.68
2022-08-28T08:50:57.688Z,1015.70
2022-08-28T08:51:57.892Z,1015.81
2022-08-28T08:52:57.710Z,1015.76
2022-08-28T08:53:57.669Z,1015.69
2022-08-28T08:54:59.401Z,1015.82
2022-08-28T08:55:57.652Z,1015.77
2022-08-28T08:56:57.623Z,1015.79
2022-08-28T08:57:57.590Z,1015.74
2022-08-28T08:58:57.571Z,1015.69
2022-08-28T08:59:57.563Z,1015.83
2022-08-28T09:00:57.640Z,1015.74
2022-08-28T09:01:57.585Z,1015.77
2022-08-28T09:02:57.611Z,1015.74
2022-08-28T09:03:57.591Z,1015.82
2022-08-28T09:04:57.571Z,1015.83
2022-08-28T09:05:57.511Z,1015.85
2022-08-28T09:06:57.736Z,1015.77
2022-08-28T09:07:57.518Z,1015.79
2022-08-28T09:08:57.859Z,1015.80
2022-08-28T09:09:57.446Z,1015.80
2022-08-28T09:10:57.477Z,1015.83
2022-08-28T09:11:57.542Z,1015.76
2022-08-28T09:12:57.688Z,1015.86
2022-08-28T09:13:57.397Z,1015.82
2022-08-28T09:14:57.448Z,1015.86
2022-08-28T09:15:57.375Z,1015.83
2022-08-28T09:16:57.341Z,1015.80
2022-08-28T09:17:57.383Z,1015.87
2022-08-28T09:18:57.351Z,1015.78
2022-08-28T09:19:57.426Z,1015.81
2022-08-28T09:20:57.327Z,1015.75
2022-08-28T09:21:57.279Z,1015.72
2022-08-28T09:22:57.345Z,1015.73
2022-08-28T09:23:57.438Z,1015.75
2022-08-28T09:24:57.242Z,1015.77
2022-08-28T09:25:59.708Z,1015.74
2022-08-28T09:26:57.304Z,1015.77
2022-08-28T09:27:57.216Z,1015.80
2022-08-28T09:28:57.178Z,1015.72
2022-08-28T09:29:57.179Z,1015.78
2022-08-28T09:30:57.888Z,1015.78
2022-08-28T09:31:57.232Z,1015.81
2022-08-28T09:32:57.208Z,1015.88
2022-08-28T09:33:57.107Z,1015.91
2022-08-28T09:34:57.148Z,1015.83
2022-08-28T09:35:57.145Z,1015.86
2022-08-28T09:36:57.113Z,1015.89
2022-08-28T09:37:57.124Z,1015.91
2022-08-28T09:38:57.068Z,1015.92
2022-08-28T09:39:57.153Z,1015.89
2022-08-28T09:40:57.200Z,1015.89
2022-08-28T09:41:57.049Z,1015.91
2022-08-28T09:42:56.983Z,1015.90
2022-08-28T09:43:57.029Z,1015.91
2022-08-28T09:44:57.105Z,1015.91
2022-08-28T09:45:57.028Z,1015.92
2022-08-28T09:46:57.020Z,1016.01
2022-08-28T09:47:57.024Z,1015.95
2022-08-28T09:48:56.918Z,1016.02
2022-08-28T09:49:57.030Z,1015.98
2022-08-28T09:50:56.893Z,1016.02
2022-08-28T09:51:56.906Z,1015.99
2022-08-28T09:52:56.912Z,1016.03
2022-08-28T09:53:56.850Z,1016.19
2022-08-28T09:54:56.836Z,1016.03
2022-08-28T09:55:56.864Z,1016.00
2022-08-28T09:56:56.867Z,1016.04
2022-08-28T09:57:56.846Z,1016.06
2022-08-28T09:58:56.824Z,1015.98
2022-08-28T09:59:56.807Z,1016.05
2022-08-28T10:00:56.817Z,1015.88
2022-08-28T10:01:56.795Z,1015.97
2022-08-28T10:02:56.814Z,1015.91
2022-08-28T10:03:57.042Z,1015.84
2022-08-28T10:04:57.735Z,1015.95
2022-08-28T10:05:56.732Z,1015.96
2022-08-28T10:06:56.696Z,1015.95
2022-08-28T10:07:56.670Z,1015.94
2022-08-28T10:08:56.691Z,1015.98
2022-08-28T10:09:56.642Z,1015.99
2022-08-28T10:10:56.682Z,1015.94
2022-08-28T10:11:56.784Z,1015.92
2022-08-28T10:12:56.604Z,1016.00
2022-08-28T10:13:57.609Z,1016.02
2022-08-28T10:14:56.594Z,1016.04
2022-08-28T10:15:56.627Z,1015.97
2022-08-28T10:16:56.576Z,1015.98
2022-08-28T10:17:56.615Z,1015.90
2022-08-28T10:18:56.686Z,1015.94
2022-08-28T10:19:56.528Z,1015.99
2022-08-28T10:20:56.507Z,1015.90
2022-08-28T10:21:56.661Z,1015.89
2022-08-28T10:22:57.002Z,1015.88
2022-08-28T10:23:56.537Z,1016.05
2022-08-28T10:24:56.543Z,1016.01
2022-08-28T10:25:56.436Z,1015.94
2022-08-28T10:26:56.441Z,1015.97
2022-08-28T10:27:56.421Z,1016.00
2022-08-28T10:28:56.433Z,1016.07
2022-08-28T10:29:56.448Z,1016.03
2022-08-28T10:30:56.447Z,1016.05
2022-08-28T10:31:56.377Z,1016.09
2022-08-28T10:32:56.483Z,1016.11
2022-08-28T10:33:56.426Z,1016.16
2022-08-28T10:34:56.299Z,1016.14
2022-08-28T10:35:56.340Z,1016.06
2022-08-28T10:36:56.306Z,1016.09
2022-08-28T10:37:56.284Z,1016.08
2022-08-28T10:38:56.283Z,1016.12
2022-08-28T10:39:56.293Z,1016.14
2022-08-28T10:40:56.277Z,1016.05
2022-08-28T10:41:56.230Z,1016.09
2022-08-28T10:42:56.213Z,1016.12
2022-08-28T10:43:56.213Z,1016.13
2022-08-28T10:44:56.265Z,1016.06
2022-08-28T10:45:56.266Z,1016.19
2022-08-28T10:46:56.149Z,1016.17
2022-08-28T10:47:56.134Z,1016.21
2022-08-28T10:48:56.133Z,1016.18
2022-08-28T10:49:56.799Z,1016.21
2022-08-28T10:50:56.099Z,1016.22
2022-08-28T10:51:58.061Z,1016.18
2022-08-28T10:52:56.058Z,1016.19
2022-08-28T10:53:56.096Z,1016.21
2022-08-28T10:54:56.032Z,1016.24
2022-08-28T10:55:56.048Z,1016.22
2022-08-28T10:56:56.557Z,1016.17
2022-08-28T10:57:56.417Z,1016.10
2022-08-28T10:58:56.054Z,1016.19
2022-08-28T10:59:55.990Z,1016.10
2022-08-28T11:00:56.081Z,1016.14
2022-08-28T11:01:56.028Z,1016.15
2022-08-28T11:02:56.030Z,1016.03
2022-08-28T11:03:55.952Z,1016.01
2022-08-28T11:04:58.531Z,1016.11
2022-08-28T11:05:55.894Z,1015.95
2022-08-28T11:06:56.038Z,1016.10
2022-08-28T11:07:55.927Z,1016.03
2022-08-28T11:08:55.939Z,1016.07
2022-08-28T11:09:55.851Z,1016.07
2022-08-28T11:10:56.021Z,1016.10
2022-08-28T11:12:01.078Z,1016.02
2022-08-28T11:12:56.882Z,1016.01
2022-08-28T11:13:55.811Z,1016.01
2022-08-28T11:14:55.778Z,1016.04
2022-08-28T11:15:55.777Z,1016.01
2022-08-28T11:16:55.910Z,1016.06
2022-08-28T11:17:55.749Z,1016.07
2022-08-28T11:18:55.863Z,1016.04
2022-08-28T11:19:55.735Z,1016.03
2022-08-28T11:20:55.702Z,1016.04
2022-08-28T11:21:55.697Z,1016.10
2022-08-28T11:22:55.773Z,1016.13
2022-08-28T11:23:55.714Z,1016.17
2022-08-28T11:25:01.744Z,1016.11
2022-08-28T11:25:56.633Z,1016.08
2022-08-28T11:26:55.634Z,1016.09
2022-08-28T11:27:55.656Z,1016.22
2022-08-28T11:28:55.742Z,1016.07
2022-08-28T11:29:55.606Z,1016.13
2022-08-28T11:30:55.620Z,1016.12
2022-08-28T11:31:55.568Z,1016.16
2022-08-28T11:32:55.564Z,1016.04
2022-08-28T11:33:55.549Z,1016.05
2022-08-28T11:34:55.537Z,1016.03
2022-08-28T11:35:55.513Z,1016.05
2022-08-28T11:36:55.560Z,1016.05
2022-08-28T11:37:55.503Z,1016.05
2022-08-28T11:38:55.498Z,1016.11
2022-08-28T11:39:55.502Z,1016.13
2022-08-28T11:40:55.460Z,1016.20
2022-08-28T11:41:55.427Z,1016.10
2022-08-28T11:42:55.455Z,1016.26
2022-08-28T11:43:55.437Z,1016.17
2022-08-28T11:44:55.501Z,1016.18
2022-08-28T11:45:55.425Z,1016.20
2022-08-28T11:46:55.351Z,1016.13
2022-08-28T11:47:55.354Z,1016.08
2022-08-28T11:48:55.707Z,1016.16
2022-08-28T11:49:55.361Z,1016.13
2022-08-28T11:50:55.327Z,1016.20
2022-08-28T11:51:59.053Z,1016.10
2022-08-28T11:52:55.312Z,1016.14
2022-08-28T11:53:55.291Z,1016.16
2022-08-28T11:54:55.306Z,1016.09
2022-08-28T11:55:55.242Z,1016.08
2022-08-28T11:56:55.248Z,1016.09
2022-08-28T11:57:55.231Z,1016.02
2022-08-28T11:58:55.263Z,1016.00
2022-08-28T11:59:55.229Z,1016.06
2022-08-28T12:00:55.176Z,1016.07
2022-08-28T12:01:55.166Z,1016.00
2022-08-28T12:02:55.203Z,1016.00
2022-08-28T12:03:55.228Z,1015.98
2022-08-28T12:04:55.136Z,1015.93